Saturday, February 24, 2018, 10:34 PM EST
Back to Local

KESN, Easton / Newman Field

Location: Easton, MD, United States Lat: 38.8
Local Time: 10:34 PM EST ( 3:34 GMT) Lon: -76.067
Time Zone: US/Eastern Elev: 72 ft

Show me the last for .
Show Coded

Time T Td Feel RH Dir Speed Gust Alt SLP Vis Weather Sky Remarks
2018-02-24 22:26 50 46 - 85 100° 7 - 30.17 - 10 SCT020 BKN028 None
2018-02-24 21:54 50 46 47 87 100° 7 - 30.16 - 10 OVC028 None
2018-02-24 20:58 50 46 48 87 110° 5 - 30.18 - 7 -RA BKN010 None
2018-02-24 19:56 50 48 47 93 70° 7 - 30.18 - 7 BKN023 None
2018-02-24 18:54 50 48 46 93 80° 9 - 30.17 - 7 BKN018 None
2018-02-24 17:59 50 48 46 93 70° 9 - 30.17 - 7 -DZ OVC014 None
2018-02-24 16:55 52 50 - 93 60° 9 - 30.17 - 5 -DZ OVC008 None
2018-02-24 15:50 54 50 - 87 100° 7 - 30.15 - 2 RA OVC004 None
2018-02-24 14:50 54 52 - 93 - Calm - 30.16 - 3 -RA OVC005 None
2018-02-24 13:50 54 52 - 93 - Calm - 30.17 - 4 BR OVC005 None
2018-02-24 12:47 54 54 - 100 - Calm - 30.17 - 0 BR OVC003 None
2018-02-24 11:50 54 52 - 93 - Calm - 30.20 - 0 BR OVC003 None
2018-02-24 10:48 54 52 - 93 - Calm - 30.20 - 2 BR OVC003 None
2018-02-24 09:48 54 50 - 87 - Calm - 30.22 - 0 FG OVC001 None
2018-02-24 08:50 50 50 - 100 - Calm - 30.21 - 0 FG OVC001 None
2018-02-24 07:53 50 48 - 93 - Calm - 30.21 - 0 FG OVC001 None
2018-02-24 06:53 50 48 - 93 - Calm - 30.21 - 0 FG OVC001 None
2018-02-24 05:53 50 48 - 93 - Calm - 30.21 - 3 BR OVC003 None
2018-02-24 05:06 50 48 48 95 190° 5 - 30.20 - 1 BR OVC001 None
2018-02-24 04:49 49 48 - 95 - Calm - 30.21 - 0 FG OVC001 None
2018-02-24 04:28 49 48 48 96 230° 3 - 30.22 - 0 FG OVC001 None
2018-02-24 04:07 49 48 - 96 - Calm - 30.22 - 0 FG OVC001 None
2018-02-24 03:49 49 48 48 94 200° 3 - 30.22 - 0 FG OVC001 None
2018-02-24 03:27 49 47 48 95 190° 3 - 30.23 - 0 FG OVC001 None
2018-02-24 03:07 48 47 47 95 220° 3 - 30.25 - 0 FG OVC001 None
2018-02-24 02:49 48 47 - 95 - Calm - 30.25 - 0 FG OVC001 None
2018-02-24 02:26 48 47 - 94 - Calm - 30.26 - 0 BR OVC001 None
2018-02-24 02:06 48 47 46 95 210° 5 - 30.26 - 0 BR OVC001 None
2018-02-24 01:49 48 46 46 95 210° 5 - 30.27 - 0 BR OVC003 None
2018-02-24 01:27 47 46 45 96 210° 6 - 30.28 - 0 BR OVC003 None
2018-02-24 01:07 47 46 46 95 230° 3 - 30.28 - 1 BR OVC003 None
2018-02-24 00:49 47 46 44 94 220° 7 - 30.28 - 1 BR OVC003 None
2018-02-24 00:27 47 46 45 95 220° 6 - 30.29 - 1 BR OVC003 None
2018-02-24 00:06 47 46 45 95 230° 6 - 30.29 - 1 BR OVC003 None
2018-02-23 23:49 47 46 45 94 240° 6 - 30.29 - 1 BR OVC003 None
2018-02-23 23:28 47 46 46 94 250° 3 - 30.31 - 1 BR OVC003 None
2018-02-23 23:08 47 46 45 95 240° 5 - 30.31 - 1 BR OVC003 None
2018-02-23 22:49 47 45 44 94 230° 5 - 30.31 - 1 BR OVC003 None

Support USWX by starting your Amazon purchase here.